sensor_id;sensor_type;location;lat;lon;timestamp;pressure;altitude;pressure_sealevel;temperature;humidity
36062;BME280;22123;52.412;20.970;2023-03-20T00:00:46;100706.50;;;0.05;100.00
36062;BME280;22123;52.412;20.970;2023-03-20T00:03:12;100657.13;;;-0.23;100.00
36062;BME280;22123;52.412;20.970;2023-03-20T00:05:39;100669.97;;;-0.17;100.00
36062;BME280;22123;52.412;20.970;2023-03-20T00:08:05;100697.34;;;-0.04;100.00
36062;BME280;22123;52.412;20.970;2023-03-20T00:10:35;100683.19;;;-0.17;100.00
36062;BME280;22123;52.412;20.970;2023-03-20T00:13:02;100648.56;;;-0.41;100.00
36062;BME280;22123;52.412;20.970;2023-03-20T00:15:32;100668.38;;;-0.34;100.00
36062;BME280;22123;52.412;20.970;2023-03-20T00:18:00;100636.59;;;-0.61;100.00
36062;BME280;22123;52.412;20.970;2023-03-20T00:20:26;100632.22;;;-0.62;100.00
36062;BME280;22123;52.412;20.970;2023-03-20T00:22:52;100698.06;;;-0.29;100.00
36062;BME280;22123;52.412;20.970;2023-03-20T00:25:20;100699.19;;;-0.33;100.00
36062;BME280;22123;52.412;20.970;2023-03-20T00:27:47;100704.59;;;-0.34;100.00
36062;BME280;22123;52.412;20.970;2023-03-20T00:30:22;100648.09;;;-0.62;100.00
36062;BME280;22123;52.412;20.970;2023-03-20T00:32:49;100677.13;;;-0.46;100.00
36062;BME280;22123;52.412;20.970;2023-03-20T00:35:18;100690.97;;;-0.43;100.00
36062;BME280;22123;52.412;20.970;2023-03-20T00:37:44;100656.22;;;-0.65;100.00
36062;BME280;22123;52.412;20.970;2023-03-20T00:40:11;100625.19;;;-0.91;100.00
36062;BME280;22123;52.412;20.970;2023-03-20T00:42:37;100617.72;;;-0.98;100.00
36062;BME280;22123;52.412;20.970;2023-03-20T00:45:03;100589.69;;;-1.15;100.00
36062;BME280;22123;52.412;20.970;2023-03-20T00:47:32;100651.53;;;-0.75;100.00
36062;BME280;22123;52.412;20.970;2023-03-20T00:49:59;100685.22;;;-0.64;100.00
36062;BME280;22123;52.412;20.970;2023-03-20T00:52:25;100649.47;;;-0.84;100.00
36062;BME280;22123;52.412;20.970;2023-03-20T00:54:51;100634.13;;;-0.93;100.00
36062;BME280;22123;52.412;20.970;2023-03-20T00:57:21;100684.66;;;-0.69;100.00
36062;BME280;22123;52.412;20.970;2023-03-20T01:00:02;100649.81;;;-0.90;100.00
36062;BME280;22123;52.412;20.970;2023-03-20T01:02:29;100671.94;;;-0.77;100.00
36062;BME280;22123;52.412;20.970;2023-03-20T01:04:56;100672.88;;;-0.78;100.00
36062;BME280;22123;52.412;20.970;2023-03-20T01:07:22;100666.25;;;-0.85;100.00
36062;BME280;22123;52.412;20.970;2023-03-20T01:09:48;100665.56;;;-0.89;100.00
36062;BME280;22123;52.412;20.970;2023-03-20T01:12:14;100655.47;;;-0.96;100.00
36062;BME280;22123;52.412;20.970;2023-03-20T01:14:41;100672.56;;;-0.88;100.00
36062;BME280;22123;52.412;20.970;2023-03-20T01:17:18;100630.66;;;-1.08;100.00
36062;BME280;22123;52.412;20.970;2023-03-20T01:19:44;100644.41;;;-1.03;100.00
36062;BME280;22123;52.412;20.970;2023-03-20T01:22:10;100611.56;;;-1.28;100.00
36062;BME280;22123;52.412;20.970;2023-03-20T01:24:36;100667.94;;;-0.98;100.00
36062;BME280;22123;52.412;20.970;2023-03-20T01:27:01;100638.19;;;-1.16;100.00
36062;BME280;22123;52.412;20.970;2023-03-20T01:29:27;100615.59;;;-1.36;100.00
36062;BME280;22123;52.412;20.970;2023-03-20T01:31:53;100667.75;;;-1.10;100.00
36062;BME280;22123;52.412;20.970;2023-03-20T01:34:20;100645.38;;;-1.18;100.00
36062;BME280;22123;52.412;20.970;2023-03-20T01:36:50;100610.59;;;-1.41;100.00
36062;BME280;22123;52.412;20.970;2023-03-20T01:39:19;100654.53;;;-1.10;100.00
36062;BME280;22123;52.412;20.970;2023-03-20T01:41:45;100634.78;;;-1.18;100.00
36062;BME280;22123;52.412;20.970;2023-03-20T01:44:27;100623.00;;;-1.27;100.00
36062;BME280;22123;52.412;20.970;2023-03-20T01:46:53;100639.31;;;-1.20;100.00
36062;BME280;22123;52.412;20.970;2023-03-20T01:51:49;100610.13;;;-1.33;100.00
36062;BME280;22123;52.412;20.970;2023-03-20T01:54:29;100586.28;;;-1.46;100.00
36062;BME280;22123;52.412;20.970;2023-03-20T01:57:14;100637.44;;;-1.18;100.00
36062;BME280;22123;52.412;20.970;2023-03-20T01:59:52;100643.00;;;-1.09;100.00
36062;BME280;22123;52.412;20.970;2023-03-20T02:02:25;100610.72;;;-1.28;100.00
36062;BME280;22123;52.412;20.970;2023-03-20T02:05:00;100589.56;;;-1.43;100.00
36062;BME280;22123;52.412;20.970;2023-03-20T02:07:27;100609.78;;;-1.27;100.00
36062;BME280;22123;52.412;20.970;2023-03-20T02:09:54;100602.97;;;-1.31;100.00
36062;BME280;22123;52.412;20.970;2023-03-20T02:12:20;100602.06;;;-1.30;100.00
36062;BME280;22123;52.412;20.970;2023-03-20T02:14:47;100593.03;;;-1.42;100.00
36062;BME280;22123;52.412;20.970;2023-03-20T02:17:13;100648.38;;;-1.10;100.00
36062;BME280;22123;52.412;20.970;2023-03-20T02:47:12;100597.59;;;-1.75;100.00
36062;BME280;22123;52.412;20.970;2023-03-20T02:57:58;100627.06;;;-1.66;100.00
36062;BME280;22123;52.412;20.970;2023-03-20T03:00:28;100637.25;;;-1.60;100.00
36062;BME280;22123;52.412;20.970;2023-03-20T03:03:03;100641.78;;;-1.62;100.00
36062;BME280;22123;52.412;20.970;2023-03-20T03:08:11;100634.97;;;-1.66;100.00
36062;BME280;22123;52.412;20.970;2023-03-20T03:11:00;100585.84;;;-1.99;100.00
36062;BME280;22123;52.412;20.970;2023-03-20T03:13:29;100616.25;;;-1.78;100.00
36062;BME280;22123;52.412;20.970;2023-03-20T03:16:00;100623.91;;;-1.73;100.00
36062;BME280;22123;52.412;20.970;2023-03-20T03:18:28;100557.41;;;-2.10;100.00
36062;BME280;22123;52.412;20.970;2023-03-20T03:20:57;100595.19;;;-1.94;100.00
36062;BME280;22123;52.412;20.970;2023-03-20T03:23:41;100631.91;;;-1.75;100.00
36062;BME280;22123;52.412;20.970;2023-03-20T03:26:10;100591.13;;;-1.99;100.00
36062;BME280;22123;52.412;20.970;2023-03-20T03:28:42;100632.84;;;-1.76;100.00
36062;BME280;22123;52.412;20.970;2023-03-20T03:31:12;100629.66;;;-1.81;100.00
36062;BME280;22123;52.412;20.970;2023-03-20T03:33:41;100574.97;;;-2.09;100.00
36062;BME280;22123;52.412;20.970;2023-03-20T03:39:06;100625.88;;;-1.77;100.00
36062;BME280;22123;52.412;20.970;2023-03-20T03:49:07;100592.56;;;-1.94;100.00
36062;BME280;22123;52.412;20.970;2023-03-20T03:51:37;100610.91;;;-1.76;100.00
36062;BME280;22123;52.412;20.970;2023-03-20T03:54:21;100564.31;;;-2.07;100.00
36062;BME280;22123;52.412;20.970;2023-03-20T03:56:50;100612.28;;;-1.85;100.00
36062;BME280;22123;52.412;20.970;2023-03-20T04:02:21;100600.44;;;-1.78;100.00
36062;BME280;22123;52.412;20.970;2023-03-20T04:04:51;100605.72;;;-1.78;100.00
36062;BME280;22123;52.412;20.970;2023-03-20T04:07:18;100575.47;;;-2.02;100.00
36062;BME280;22123;52.412;20.970;2023-03-20T04:09:44;100546.31;;;-2.15;100.00
36062;BME280;22123;52.412;20.970;2023-03-20T04:12:38;100576.47;;;-2.05;100.00
36062;BME280;22123;52.412;20.970;2023-03-20T04:15:05;100605.19;;;-1.84;100.00
36062;BME280;22123;52.412;20.970;2023-03-20T04:17:32;100554.88;;;-2.12;100.00
36062;BME280;22123;52.412;20.970;2023-03-20T04:19:58;100534.31;;;-2.21;100.00
36062;BME280;22123;52.412;20.970;2023-03-20T04:22:23;100573.84;;;-2.05;100.00
36062;BME280;22123;52.412;20.970;2023-03-20T04:24:50;100553.38;;;-2.16;100.00
36062;BME280;22123;52.412;20.970;2023-03-20T04:27:16;100614.91;;;-1.85;100.00
36062;BME280;22123;52.412;20.970;2023-03-20T04:29:42;100576.66;;;-2.08;100.00
36062;BME280;22123;52.412;20.970;2023-03-20T04:32:08;100591.28;;;-2.02;100.00
36062;BME280;22123;52.412;20.970;2023-03-20T04:34:34;100554.81;;;-2.26;100.00
36062;BME280;22123;52.412;20.970;2023-03-20T04:36:59;100558.97;;;-2.22;100.00
36062;BME280;22123;52.412;20.970;2023-03-20T04:39:26;100595.47;;;-1.98;100.00
36062;BME280;22123;52.412;20.970;2023-03-20T04:41:52;100615.09;;;-1.88;100.00
36062;BME280;22123;52.412;20.970;2023-03-20T04:44:18;100611.34;;;-1.84;100.00
36062;BME280;22123;52.412;20.970;2023-03-20T04:46:44;100581.66;;;-2.03;100.00
36062;BME280;22123;52.412;20.970;2023-03-20T04:49:10;100538.66;;;-2.20;100.00
36062;BME280;22123;52.412;20.970;2023-03-20T04:51:35;100588.22;;;-1.95;100.00
36062;BME280;22123;52.412;20.970;2023-03-20T04:54:01;100610.63;;;-1.71;100.00
36062;BME280;22123;52.412;20.970;2023-03-20T04:56:27;100606.78;;;-1.66;100.00
36062;BME280;22123;52.412;20.970;2023-03-20T04:58:53;100613.59;;;-1.62;100.00
36062;BME280;22123;52.412;20.970;2023-03-20T05:01:19;100602.19;;;-1.62;100.00
36062;BME280;22123;52.412;20.970;2023-03-20T05:03:45;100572.13;;;-1.76;100.00
36062;BME280;22123;52.412;20.970;2023-03-20T05:06:11;100572.72;;;-1.70;100.00
36062;BME280;22123;52.412;20.970;2023-03-20T05:08:37;100535.06;;;-1.88;100.00
36062;BME280;22123;52.412;20.970;2023-03-20T05:11:03;100602.41;;;-1.36;100.00
36062;BME280;22123;52.412;20.970;2023-03-20T05:13:28;100591.38;;;-1.43;100.00
36062;BME280;22123;52.412;20.970;2023-03-20T05:15:54;100565.16;;;-1.46;100.00
36062;BME280;22123;52.412;20.970;2023-03-20T05:18:20;100602.63;;;-1.11;100.00
36062;BME280;22123;52.412;20.970;2023-03-20T05:20:48;100603.28;;;-1.07;100.00
36062;BME280;22123;52.412;20.970;2023-03-20T05:23:14;100560.72;;;-1.17;100.00
36062;BME280;22123;52.412;20.970;2023-03-20T05:25:40;100584.41;;;-1.01;100.00
36062;BME280;22123;52.412;20.970;2023-03-20T05:28:06;100582.06;;;-0.91;100.00
36062;BME280;22123;52.412;20.970;2023-03-20T05:30:32;100581.16;;;-0.77;100.00
36062;BME280;22123;52.412;20.970;2023-03-20T05:32:58;100578.06;;;-0.69;100.00
36062;BME280;22123;52.412;20.970;2023-03-20T05:35:24;100605.41;;;-0.42;100.00
36062;BME280;22123;52.412;20.970;2023-03-20T05:37:50;100594.72;;;-0.40;100.00
36062;BME280;22123;52.412;20.970;2023-03-20T05:40:16;100568.47;;;-0.43;100.00
36062;BME280;22123;52.412;20.970;2023-03-20T05:42:42;100570.31;;;-0.31;100.00
36062;BME280;22123;52.412;20.970;2023-03-20T05:45:09;100564.44;;;-0.22;100.00
36062;BME280;22123;52.412;20.970;2023-03-20T05:47:35;100586.44;;;0.06;100.00
36062;BME280;22123;52.412;20.970;2023-03-20T05:50:02;100596.97;;;0.33;100.00
36062;BME280;22123;52.412;20.970;2023-03-20T05:52:28;100557.53;;;0.16;100.00
36062;BME280;22123;52.412;20.970;2023-03-20T05:54:55;100571.66;;;0.42;100.00
36062;BME280;22123;52.412;20.970;2023-03-20T05:57:20;100573.25;;;0.58;100.00
36062;BME280;22123;52.412;20.970;2023-03-20T05:59:46;100599.88;;;0.82;100.00
36062;BME280;22123;52.412;20.970;2023-03-20T06:02:12;100585.25;;;0.89;100.00
36062;BME280;22123;52.412;20.970;2023-03-20T06:04:38;100573.03;;;0.99;100.00
36062;BME280;22123;52.412;20.970;2023-03-20T06:07:04;100611.19;;;1.35;100.00
36062;BME280;22123;52.412;20.970;2023-03-20T06:09:30;100578.16;;;1.39;100.00
36062;BME280;22123;52.412;20.970;2023-03-20T06:11:56;100597.69;;;1.76;100.00
36062;BME280;22123;52.412;20.970;2023-03-20T06:14:22;100558.13;;;1.72;100.00
36062;BME280;22123;52.412;20.970;2023-03-20T06:16:47;100548.00;;;1.78;100.00
36062;BME280;22123;52.412;20.970;2023-03-20T06:19:13;100608.06;;;2.27;100.00
36062;BME280;22123;52.412;20.970;2023-03-20T06:21:39;100588.03;;;2.34;100.00
36062;BME280;22123;52.412;20.970;2023-03-20T06:24:05;100613.38;;;2.63;100.00
36062;BME280;22123;52.412;20.970;2023-03-20T06:26:31;100568.88;;;2.53;100.00
36062;BME280;22123;52.412;20.970;2023-03-20T06:28:57;100618.88;;;2.95;100.00
36062;BME280;22123;52.412;20.970;2023-03-20T06:31:23;100611.63;;;3.08;100.00
36062;BME280;22123;52.412;20.970;2023-03-20T06:33:49;100576.69;;;3.02;100.00
36062;BME280;22123;52.412;20.970;2023-03-20T06:36:15;100580.91;;;3.16;100.00
36062;BME280;22123;52.412;20.970;2023-03-20T06:38:41;100586.94;;;3.40;100.00
36062;BME280;22123;52.412;20.970;2023-03-20T06:41:07;100602.03;;;3.62;100.00
36062;BME280;22123;52.412;20.970;2023-03-20T06:43:33;100621.59;;;3.84;100.00
36062;BME280;22123;52.412;20.970;2023-03-20T06:45:59;100632.78;;;4.10;100.00
36062;BME280;22123;52.412;20.970;2023-03-20T06:48:24;100580.50;;;3.98;100.00
36062;BME280;22123;52.412;20.970;2023-03-20T06:50:51;100631.81;;;4.44;100.00
36062;BME280;22123;52.412;20.970;2023-03-20T06:53:18;100629.28;;;4.63;100.00
36062;BME280;22123;52.412;20.970;2023-03-20T06:55:48;100578.88;;;4.39;100.00
36062;BME280;22123;52.412;20.970;2023-03-20T06:58:14;100600.59;;;4.56;100.00
36062;BME280;22123;52.412;20.970;2023-03-20T07:00:41;100619.31;;;4.86;100.00
36062;BME280;22123;52.412;20.970;2023-03-20T07:03:07;100633.31;;;5.00;100.00
36062;BME280;22123;52.412;20.970;2023-03-20T07:05:33;100597.69;;;4.80;100.00
36062;BME280;22123;52.412;20.970;2023-03-20T07:07:59;100578.09;;;4.69;100.00
36062;BME280;22123;52.412;20.970;2023-03-20T07:10:25;100586.88;;;4.81;100.00
36062;BME280;22123;52.412;20.970;2023-03-20T07:12:51;100581.25;;;4.84;100.00
36062;BME280;22123;52.412;20.970;2023-03-20T07:15:18;100634.16;;;5.31;100.00
36062;BME280;22123;52.412;20.970;2023-03-20T07:17:44;100596.75;;;5.21;100.00
36062;BME280;22123;52.412;20.970;2023-03-20T07:20:10;100600.72;;;5.37;100.00
36062;BME280;22123;52.412;20.970;2023-03-20T07:22:36;100634.28;;;5.61;100.00
36062;BME280;22123;52.412;20.970;2023-03-20T07:25:02;100626.56;;;5.67;100.00
36062;BME280;22123;52.412;20.970;2023-03-20T07:27:28;100598.28;;;5.55;100.00
36062;BME280;22123;52.412;20.970;2023-03-20T07:29:54;100585.31;;;5.50;100.00
36062;BME280;22123;52.412;20.970;2023-03-20T07:32:20;100629.00;;;5.90;100.00
36062;BME280;22123;52.412;20.970;2023-03-20T07:34:46;100620.72;;;5.93;100.00
36062;BME280;22123;52.412;20.970;2023-03-20T07:37:12;100632.88;;;6.07;100.00
36062;BME280;22123;52.412;20.970;2023-03-20T07:39:38;100624.28;;;6.13;100.00
36062;BME280;22123;52.412;20.970;2023-03-20T07:42:04;100588.41;;;6.06;100.00
36062;BME280;22123;52.412;20.970;2023-03-20T07:44:30;100599.13;;;6.16;100.00
36062;BME280;22123;52.412;20.970;2023-03-20T07:46:55;100586.16;;;6.21;100.00
36062;BME280;22123;52.412;20.970;2023-03-20T07:49:21;100592.78;;;6.36;100.00
36062;BME280;22123;52.412;20.970;2023-03-20T07:51:50;100587.38;;;6.56;100.00
36062;BME280;22123;52.412;20.970;2023-03-20T07:54:16;100621.84;;;6.98;100.00
36062;BME280;22123;52.412;20.970;2023-03-20T07:56:42;100625.00;;;7.21;100.00
36062;BME280;22123;52.412;20.970;2023-03-20T07:59:08;100612.59;;;7.48;100.00
36062;BME280;22123;52.412;20.970;2023-03-20T08:01:34;100582.19;;;7.67;100.00
36062;BME280;22123;52.412;20.970;2023-03-20T08:04:00;100610.41;;;8.25;100.00
36062;BME280;22123;52.412;20.970;2023-03-20T08:06:26;100587.75;;;8.38;100.00
36062;BME280;22123;52.412;20.970;2023-03-20T08:08:52;100563.38;;;8.49;100.00
36062;BME280;22123;52.412;20.970;2023-03-20T08:11:18;100580.28;;;8.94;100.00
36062;BME280;22123;52.412;20.970;2023-03-20T08:13:44;100605.66;;;9.34;100.00
36062;BME280;22123;52.412;20.970;2023-03-20T08:16:10;100609.28;;;9.51;100.00
36062;BME280;22123;52.412;20.970;2023-03-20T08:18:36;100605.13;;;9.73;100.00
36062;BME280;22123;52.412;20.970;2023-03-20T08:21:03;100580.56;;;9.60;100.00
36062;BME280;22123;52.412;20.970;2023-03-20T08:23:29;100576.28;;;9.75;100.00
36062;BME280;22123;52.412;20.970;2023-03-20T08:25:55;100602.91;;;10.11;100.00
36062;BME280;22123;52.412;20.970;2023-03-20T08:28:21;100575.31;;;10.09;100.00
36062;BME280;22123;52.412;20.970;2023-03-20T08:30:48;100614.56;;;10.36;100.00
36062;BME280;22123;52.412;20.970;2023-03-20T08:33:15;100608.34;;;10.60;100.00
36062;BME280;22123;52.412;20.970;2023-03-20T08:35:41;100609.84;;;10.63;100.00
36062;BME280;22123;52.412;20.970;2023-03-20T08:38:11;100602.09;;;10.76;100.00
36062;BME280;22123;52.412;20.970;2023-03-20T08:40:40;100557.31;;;10.67;100.00
36062;BME280;22123;52.412;20.970;2023-03-20T08:43:07;100580.03;;;10.81;100.00
36062;BME280;22123;52.412;20.970;2023-03-20T08:45:33;100597.84;;;11.07;100.00
36062;BME280;22123;52.412;20.970;2023-03-20T08:47:59;100597.31;;;11.11;100.00
36062;BME280;22123;52.412;20.970;2023-03-20T08:50:25;100582.50;;;11.16;100.00
36062;BME280;22123;52.412;20.970;2023-03-20T08:52:50;100579.09;;;11.22;100.00
36062;BME280;22123;52.412;20.970;2023-03-20T08:55:16;100581.59;;;11.31;100.00
36062;BME280;22123;52.412;20.970;2023-03-20T08:57:42;100569.75;;;11.41;100.00
36062;BME280;22123;52.412;20.970;2023-03-20T09:00:11;100599.97;;;11.68;100.00
36062;BME280;22123;52.412;20.970;2023-03-20T09:02:38;100561.72;;;11.64;100.00
36062;BME280;22123;52.412;20.970;2023-03-20T09:05:04;100586.19;;;11.94;100.00
36062;BME280;22123;52.412;20.970;2023-03-20T09:07:30;100554.16;;;11.91;100.00
36062;BME280;22123;52.412;20.970;2023-03-20T09:09:55;100595.69;;;12.13;100.00
36062;BME280;22123;52.412;20.970;2023-03-20T09:12:21;100546.03;;;11.99;100.00
36062;BME280;22123;52.412;20.970;2023-03-20T09:14:47;100593.13;;;12.43;100.00
36062;BME280;22123;52.412;20.970;2023-03-20T09:17:13;100590.19;;;12.67;100.00
36062;BME280;22123;52.412;20.970;2023-03-20T09:19:39;100583.63;;;13.15;100.00
36062;BME280;22123;52.412;20.970;2023-03-20T09:22:05;100592.19;;;13.48;100.00
36062;BME280;22123;52.412;20.970;2023-03-20T09:24:31;100594.44;;;13.74;100.00
36062;BME280;22123;52.412;20.970;2023-03-20T09:26:57;100580.06;;;13.96;100.00
36062;BME280;22123;52.412;20.970;2023-03-20T09:29:23;100563.72;;;14.04;100.00
36062;BME280;22123;52.412;20.970;2023-03-20T09:31:51;100552.91;;;14.04;100.00
36062;BME280;22123;52.412;20.970;2023-03-20T09:34:17;100543.94;;;14.03;100.00
36062;BME280;22123;52.412;20.970;2023-03-20T09:36:43;100560.56;;;14.22;100.00
36062;BME280;22123;52.412;20.970;2023-03-20T09:39:09;100522.03;;;14.20;100.00
36062;BME280;22123;52.412;20.970;2023-03-20T09:41:35;100561.75;;;14.41;100.00
36062;BME280;22123;52.412;20.970;2023-03-20T09:51:59;100576.34;;;15.67;100.00
36062;BME280;22123;52.412;20.970;2023-03-20T09:54:33;100575.59;;;15.93;100.00
36062;BME280;22123;52.412;20.970;2023-03-20T09:57:01;100537.44;;;16.75;100.00
36062;BME280;22123;52.412;20.970;2023-03-20T09:59:28;100564.38;;;18.14;100.00
36062;BME280;22123;52.412;20.970;2023-03-20T10:01:59;100552.88;;;18.87;84.46
36062;BME280;22123;52.412;20.970;2023-03-20T10:04:29;100563.25;;;18.97;76.49
36062;BME280;22123;52.412;20.970;2023-03-20T10:06:55;100539.53;;;18.29;80.53
36062;BME280;22123;52.412;20.970;2023-03-20T10:09:25;100563.28;;;18.47;81.12
36062;BME280;22123;52.412;20.970;2023-03-20T10:25:51;100574.78;;;17.33;76.64
36062;BME280;22123;52.412;20.970;2023-03-20T10:28:28;100529.69;;;16.98;79.41
36062;BME280;22123;52.412;20.970;2023-03-20T10:36:28;100533.47;;;18.52;79.24
36062;BME280;22123;52.412;20.970;2023-03-20T10:41:37;100550.88;;;21.77;65.72
36062;BME280;22123;52.412;20.970;2023-03-20T10:44:09;100500.75;;;21.35;44.37
36062;BME280;22123;52.412;20.970;2023-03-20T10:46:48;100547.06;;;21.37;43.33
36062;BME280;22123;52.412;20.970;2023-03-20T10:51:57;100532.28;;;20.97;43.02
36062;BME280;22123;52.412;20.970;2023-03-20T10:54:27;100529.63;;;20.43;43.93
36062;BME280;22123;52.412;20.970;2023-03-20T10:56:58;100527.50;;;20.93;44.72
36062;BME280;22123;52.412;20.970;2023-03-20T10:59:33;100552.84;;;21.00;41.87
36062;BME280;22123;52.412;20.970;2023-03-20T11:01:59;100528.13;;;20.71;42.87
36062;BME280;22123;52.412;20.970;2023-03-20T11:04:25;100531.44;;;20.73;39.81
36062;BME280;22123;52.412;20.970;2023-03-20T11:07:00;100504.75;;;19.49;42.00
36062;BME280;22123;52.412;20.970;2023-03-20T11:09:29;100544.63;;;19.50;44.58
36062;BME280;22123;52.412;20.970;2023-03-20T11:12:00;100530.53;;;19.53;44.65
36062;BME280;22123;52.412;20.970;2023-03-20T11:14:33;100526.03;;;19.58;45.43
36062;BME280;22123;52.412;20.970;2023-03-20T11:17:01;100520.13;;;19.92;45.58
36062;BME280;22123;52.412;20.970;2023-03-20T11:19:32;100540.31;;;20.45;44.19
36062;BME280;22123;52.412;20.970;2023-03-20T11:22:07;100545.28;;;20.24;44.39
36062;BME280;22123;52.412;20.970;2023-03-20T11:24:40;100549.84;;;18.96;46.44
36062;BME280;22123;52.412;20.970;2023-03-20T11:27:08;100548.16;;;17.94;49.06
36062;BME280;22123;52.412;20.970;2023-03-20T11:29:36;100541.75;;;17.29;51.30
36062;BME280;22123;52.412;20.970;2023-03-20T11:32:27;100540.56;;;16.85;53.61
36062;BME280;22123;52.412;20.970;2023-03-20T11:34:55;100515.06;;;16.59;55.65
36062;BME280;22123;52.412;20.970;2023-03-20T11:37:23;100533.38;;;17.17;58.34
36062;BME280;22123;52.412;20.970;2023-03-20T11:39:59;100504.94;;;17.97;54.07
36062;BME280;22123;52.412;20.970;2023-03-20T11:42:28;100489.91;;;18.20;48.80
36062;BME280;22123;52.412;20.970;2023-03-20T11:45:00;100518.19;;;18.69;46.69
36062;BME280;22123;52.412;20.970;2023-03-20T11:47:31;100482.34;;;18.47;46.97
36062;BME280;22123;52.412;20.970;2023-03-20T11:50:00;100510.31;;;18.86;49.23
36062;BME280;22123;52.412;20.970;2023-03-20T11:52:30;100488.38;;;18.74;45.42
36062;BME280;22123;52.412;20.970;2023-03-20T11:55:00;100511.75;;;18.89;44.56
36062;BME280;22123;52.412;20.970;2023-03-20T11:57:40;100514.63;;;18.94;46.78
36062;BME280;22123;52.412;20.970;2023-03-20T12:00:19;100484.44;;;19.26;47.06
36062;BME280;22123;52.412;20.970;2023-03-20T12:02:45;100485.34;;;19.38;44.61
36062;BME280;22123;52.412;20.970;2023-03-20T12:08:06;100513.00;;;19.42;44.55
36062;BME280;22123;52.412;20.970;2023-03-20T12:10:39;100505.63;;;19.12;45.34
36062;BME280;22123;52.412;20.970;2023-03-20T12:13:13;100515.59;;;18.56;45.85
36062;BME280;22123;52.412;20.970;2023-03-20T12:15:44;100483.72;;;17.74;46.92
36062;BME280;22123;52.412;20.970;2023-03-20T12:18:37;100519.84;;;17.49;49.50
36062;BME280;22123;52.412;20.970;2023-03-20T12:23:52;100521.94;;;16.95;51.13
36062;BME280;22123;52.412;20.970;2023-03-20T12:26:31;100529.50;;;16.66;51.75
36062;BME280;22123;52.412;20.970;2023-03-20T12:29:24;100518.22;;;16.36;53.07
36062;BME280;22123;52.412;20.970;2023-03-20T12:31:55;100499.41;;;16.01;54.37
36062;BME280;22123;52.412;20.970;2023-03-20T12:34:26;100505.44;;;15.83;56.00
36062;BME280;22123;52.412;20.970;2023-03-20T12:36:55;100456.44;;;15.29;57.31
36062;BME280;22123;52.412;20.970;2023-03-20T12:39:30;100502.84;;;15.55;58.63
36062;BME280;22123;52.412;20.970;2023-03-20T12:45:12;100506.59;;;15.60;59.99
36062;BME280;22123;52.412;20.970;2023-03-20T12:47:51;100497.03;;;15.78;61.69
36062;BME280;22123;52.412;20.970;2023-03-20T12:55:51;100486.00;;;16.93;58.58
36062;BME280;22123;52.412;20.970;2023-03-20T12:58:25;100496.16;;;17.18;55.81
36062;BME280;22123;52.412;20.970;2023-03-20T13:01:00;100495.94;;;17.19;56.45
36062;BME280;22123;52.412;20.970;2023-03-20T13:03:38;100468.63;;;16.88;57.38
36062;BME280;22123;52.412;20.970;2023-03-20T13:06:14;100479.53;;;16.61;58.55
36062;BME280;22123;52.412;20.970;2023-03-20T13:09:14;100492.91;;;16.62;57.05
36062;BME280;22123;52.412;20.970;2023-03-20T13:12:04;100492.72;;;16.50;58.59
36062;BME280;22123;52.412;20.970;2023-03-20T13:17:14;100447.19;;;16.06;61.43
36062;BME280;22123;52.412;20.970;2023-03-20T13:25:58;100487.06;;;15.85;64.19
36062;BME280;22123;52.412;20.970;2023-03-20T13:31:05;100494.78;;;15.26;67.92
36062;BME280;22123;52.412;20.970;2023-03-20T13:38:53;100458.16;;;14.89;73.68
36062;BME280;22123;52.412;20.970;2023-03-20T13:41:23;100482.34;;;14.90;73.33
36062;BME280;22123;52.412;20.970;2023-03-20T13:43:52;100485.13;;;14.69;76.35
36062;BME280;22123;52.412;20.970;2023-03-20T13:46:23;100487.06;;;14.53;78.55
36062;BME280;22123;52.412;20.970;2023-03-20T13:48:52;100451.03;;;14.24;80.72
36062;BME280;22123;52.412;20.970;2023-03-20T13:51:30;100464.03;;;14.36;81.70
36062;BME280;22123;52.412;20.970;2023-03-20T13:56:56;100466.19;;;14.47;87.52
36062;BME280;22123;52.412;20.970;2023-03-20T14:04:29;100434.00;;;14.31;89.93
36062;BME280;22123;52.412;20.970;2023-03-20T14:06:57;100470.19;;;14.51;89.88
36062;BME280;22123;52.412;20.970;2023-03-20T14:11:55;100476.28;;;14.32;97.71
36062;BME280;22123;52.412;20.970;2023-03-20T14:14:31;100431.88;;;13.98;97.32
36062;BME280;22123;52.412;20.970;2023-03-20T14:19:27;100452.75;;;14.04;95.73
36062;BME280;22123;52.412;20.970;2023-03-20T14:21:54;100434.66;;;13.83;95.92
36062;BME280;22123;52.412;20.970;2023-03-20T14:24:22;100464.78;;;14.01;96.17
36062;BME280;22123;52.412;20.970;2023-03-20T14:26:51;100472.81;;;13.88;100.00
36062;BME280;22123;52.412;20.970;2023-03-20T14:32:11;100497.78;;;13.68;100.00
36062;BME280;22123;52.412;20.970;2023-03-20T14:34:58;100474.63;;;13.29;100.00
36062;BME280;22123;52.412;20.970;2023-03-20T14:37:28;100454.94;;;12.99;100.00
36062;BME280;22123;52.412;20.970;2023-03-20T14:40:13;100506.91;;;13.16;100.00
36062;BME280;22123;52.412;20.970;2023-03-20T14:50:34;100511.50;;;12.70;100.00
36062;BME280;22123;52.412;20.970;2023-03-20T14:53:20;100519.31;;;12.65;100.00
36062;BME280;22123;52.412;20.970;2023-03-20T15:01:04;100526.53;;;12.12;100.00
36062;BME280;22123;52.412;20.970;2023-03-20T15:03:31;100486.13;;;11.80;100.00
36062;BME280;22123;52.412;20.970;2023-03-20T15:05:59;100503.78;;;11.83;100.00
36062;BME280;22123;52.412;20.970;2023-03-20T15:08:31;100512.91;;;11.82;100.00
36062;BME280;22123;52.412;20.970;2023-03-20T15:11:03;100509.72;;;11.78;100.00